sensor_id;sensor_type;location;lat;lon;timestamp;temperature;humidity
9399;DHT22;4739;49.334;8.792;2023-02-15T00:01:46;2.30;99.90
9399;DHT22;4739;49.334;8.792;2023-02-15T00:04:13;2.20;99.90
9399;DHT22;4739;49.334;8.792;2023-02-15T00:06:39;2.30;99.90
9399;DHT22;4739;49.334;8.792;2023-02-15T00:09:05;2.40;99.90
9399;DHT22;4739;49.334;8.792;2023-02-15T00:11:30;2.40;99.90
9399;DHT22;4739;49.334;8.792;2023-02-15T00:14:12;2.30;99.90
9399;DHT22;4739;49.334;8.792;2023-02-15T00:16:40;2.40;99.90
9399;DHT22;4739;49.334;8.792;2023-02-15T00:19:06;2.50;99.90
9399;DHT22;4739;49.334;8.792;2023-02-15T00:21:33;2.50;99.90
9399;DHT22;4739;49.334;8.792;2023-02-15T00:24:01;2.50;99.90
9399;DHT22;4739;49.334;8.792;2023-02-15T00:26:27;2.50;99.90
9399;DHT22;4739;49.334;8.792;2023-02-15T00:28:53;2.50;99.90
9399;DHT22;4739;49.334;8.792;2023-02-15T00:31:19;2.50;99.90
9399;DHT22;4739;49.334;8.792;2023-02-15T00:33:45;2.50;99.90
9399;DHT22;4739;49.334;8.792;2023-02-15T00:36:11;2.50;99.90
9399;DHT22;4739;49.334;8.792;2023-02-15T00:38:37;2.50;99.90
9399;DHT22;4739;49.334;8.792;2023-02-15T00:41:06;2.70;99.90
9399;DHT22;4739;49.334;8.792;2023-02-15T00:43:32;2.70;99.90
9399;DHT22;4739;49.334;8.792;2023-02-15T00:45:59;2.70;99.90
9399;DHT22;4739;49.334;8.792;2023-02-15T00:48:25;2.70;99.90
9399;DHT22;4739;49.334;8.792;2023-02-15T00:50:56;2.70;99.90
9399;DHT22;4739;49.334;8.792;2023-02-15T00:53:22;2.70;99.90
9399;DHT22;4739;49.334;8.792;2023-02-15T00:55:48;2.70;99.90
9399;DHT22;4739;49.334;8.792;2023-02-15T00:58:14;2.80;99.90
9399;DHT22;4739;49.334;8.792;2023-02-15T01:00:41;2.80;99.90
9399;DHT22;4739;49.334;8.792;2023-02-15T01:03:07;2.70;99.90
9399;DHT22;4739;49.334;8.792;2023-02-15T01:05:33;2.80;99.90
9399;DHT22;4739;49.334;8.792;2023-02-15T01:07:59;2.90;99.90
9399;DHT22;4739;49.334;8.792;2023-02-15T01:10:25;2.80;99.90
9399;DHT22;4739;49.334;8.792;2023-02-15T01:12:52;2.80;99.90
9399;DHT22;4739;49.334;8.792;2023-02-15T01:15:18;2.80;99.90
9399;DHT22;4739;49.334;8.792;2023-02-15T01:17:43;2.70;99.90
9399;DHT22;4739;49.334;8.792;2023-02-15T01:20:15;2.70;99.90
9399;DHT22;4739;49.334;8.792;2023-02-15T01:22:40;2.70;99.90
9399;DHT22;4739;49.334;8.792;2023-02-15T01:25:06;2.80;99.90
9399;DHT22;4739;49.334;8.792;2023-02-15T01:27:32;2.90;99.90
9399;DHT22;4739;49.334;8.792;2023-02-15T01:29:57;2.80;99.90
9399;DHT22;4739;49.334;8.792;2023-02-15T01:32:23;2.80;99.90
9399;DHT22;4739;49.334;8.792;2023-02-15T01:34:49;2.80;99.90
9399;DHT22;4739;49.334;8.792;2023-02-15T01:37:14;2.80;99.90
9399;DHT22;4739;49.334;8.792;2023-02-15T01:39:40;2.80;99.90
9399;DHT22;4739;49.334;8.792;2023-02-15T01:42:07;2.90;99.90
9399;DHT22;4739;49.334;8.792;2023-02-15T01:45:01;2.90;99.90
9399;DHT22;4739;49.334;8.792;2023-02-15T01:47:45;3.00;99.90
9399;DHT22;4739;49.334;8.792;2023-02-15T01:50:22;2.80;99.90
9399;DHT22;4739;49.334;8.792;2023-02-15T01:53:07;2.70;99.90
9399;DHT22;4739;49.334;8.792;2023-02-15T01:55:39;2.50;99.90
9399;DHT22;4739;49.334;8.792;2023-02-15T01:58:06;2.60;99.90
9399;DHT22;4739;49.334;8.792;2023-02-15T02:00:33;2.80;99.90
9399;DHT22;4739;49.334;8.792;2023-02-15T02:03:00;2.80;99.90
9399;DHT22;4739;49.334;8.792;2023-02-15T02:05:27;2.60;99.90
9399;DHT22;4739;49.334;8.792;2023-02-15T02:07:56;2.70;99.90
9399;DHT22;4739;49.334;8.792;2023-02-15T02:10:23;2.80;99.90
9399;DHT22;4739;49.334;8.792;2023-02-15T02:13:01;2.80;99.90
9399;DHT22;4739;49.334;8.792;2023-02-15T02:16:34;2.80;99.90
9399;DHT22;4739;49.334;8.792;2023-02-15T02:19:10;2.80;99.90
9399;DHT22;4739;49.334;8.792;2023-02-15T02:27:45;2.70;99.90
9399;DHT22;4739;49.334;8.792;2023-02-15T02:35:54;2.80;99.90
9399;DHT22;4739;49.334;8.792;2023-02-15T02:38:31;2.70;99.90
9399;DHT22;4739;49.334;8.792;2023-02-15T02:43:47;2.60;99.90
9399;DHT22;4739;49.334;8.792;2023-02-15T02:46:21;2.80;99.90
9399;DHT22;4739;49.334;8.792;2023-02-15T02:48:48;2.70;99.90
9399;DHT22;4739;49.334;8.792;2023-02-15T02:51:14;2.80;99.90
9399;DHT22;4739;49.334;8.792;2023-02-15T02:53:47;2.90;99.90
9399;DHT22;4739;49.334;8.792;2023-02-15T02:56:28;2.90;99.90
9399;DHT22;4739;49.334;8.792;2023-02-15T03:01:36;2.80;99.90
9399;DHT22;4739;49.334;8.792;2023-02-15T03:04:15;2.80;99.90
9399;DHT22;4739;49.334;8.792;2023-02-15T03:06:48;2.80;99.90
9399;DHT22;4739;49.334;8.792;2023-02-15T03:10:05;2.70;99.90
9399;DHT22;4739;49.334;8.792;2023-02-15T03:12:24;2.70;99.90
9399;DHT22;4739;49.334;8.792;2023-02-15T03:14:53;2.70;99.90
9399;DHT22;4739;49.334;8.792;2023-02-15T03:17:22;2.70;99.90
9399;DHT22;4739;49.334;8.792;2023-02-15T03:19:51;2.80;99.90
9399;DHT22;4739;49.334;8.792;2023-02-15T03:24:53;2.80;99.90
9399;DHT22;4739;49.334;8.792;2023-02-15T03:27:24;2.90;99.90
9399;DHT22;4739;49.334;8.792;2023-02-15T03:29:54;2.80;99.90
9399;DHT22;4739;49.334;8.792;2023-02-15T03:32:21;2.80;99.90
9399;DHT22;4739;49.334;8.792;2023-02-15T03:34:47;2.70;99.90
9399;DHT22;4739;49.334;8.792;2023-02-15T03:37:25;2.90;99.90
9399;DHT22;4739;49.334;8.792;2023-02-15T03:39:55;2.90;99.90
9399;DHT22;4739;49.334;8.792;2023-02-15T03:42:45;3.00;99.90
9399;DHT22;4739;49.334;8.792;2023-02-15T03:45:17;3.00;99.90
9399;DHT22;4739;49.334;8.792;2023-02-15T03:47:47;2.90;99.90
9399;DHT22;4739;49.334;8.792;2023-02-15T03:50:18;2.90;99.90
9399;DHT22;4739;49.334;8.792;2023-02-15T03:53:07;2.80;99.90
9399;DHT22;4739;49.334;8.792;2023-02-15T03:55:34;2.90;99.90
9399;DHT22;4739;49.334;8.792;2023-02-15T03:58:00;2.60;99.90
9399;DHT22;4739;49.334;8.792;2023-02-15T04:00:54;3.00;99.90
9399;DHT22;4739;49.334;8.792;2023-02-15T04:03:44;2.40;99.90
9399;DHT22;4739;49.334;8.792;2023-02-15T04:06:10;2.90;99.90
9399;DHT22;4739;49.334;8.792;2023-02-15T04:08:36;2.80;99.90
9399;DHT22;4739;49.334;8.792;2023-02-15T04:11:20;2.80;99.90
9399;DHT22;4739;49.334;8.792;2023-02-15T04:13:45;2.60;99.90
9399;DHT22;4739;49.334;8.792;2023-02-15T04:16:11;3.20;99.90
9399;DHT22;4739;49.334;8.792;2023-02-15T04:18:43;2.60;99.90
9399;DHT22;4739;49.334;8.792;2023-02-15T04:21:29;2.90;99.90
9399;DHT22;4739;49.334;8.792;2023-02-15T04:24:14;3.00;99.90
9399;DHT22;4739;49.334;8.792;2023-02-15T04:26:59;3.00;99.90
9399;DHT22;4739;49.334;8.792;2023-02-15T04:29:26;3.00;99.90
9399;DHT22;4739;49.334;8.792;2023-02-15T04:31:54;3.00;99.90
9399;DHT22;4739;49.334;8.792;2023-02-15T04:34:19;3.00;99.90
9399;DHT22;4739;49.334;8.792;2023-02-15T04:36:45;2.90;99.90
9399;DHT22;4739;49.334;8.792;2023-02-15T04:39:15;2.90;99.90
9399;DHT22;4739;49.334;8.792;2023-02-15T04:41:41;3.00;99.90
9399;DHT22;4739;49.334;8.792;2023-02-15T04:44:07;3.00;99.90
9399;DHT22;4739;49.334;8.792;2023-02-15T04:46:32;2.90;99.90
9399;DHT22;4739;49.334;8.792;2023-02-15T04:48:58;3.10;99.90
9399;DHT22;4739;49.334;8.792;2023-02-15T04:51:24;3.10;99.90
9399;DHT22;4739;49.334;8.792;2023-02-15T04:53:49;3.10;99.90
9399;DHT22;4739;49.334;8.792;2023-02-15T04:56:18;3.00;99.90
9399;DHT22;4739;49.334;8.792;2023-02-15T04:58:43;3.00;99.90
9399;DHT22;4739;49.334;8.792;2023-02-15T05:01:09;3.00;99.90
9399;DHT22;4739;49.334;8.792;2023-02-15T05:03:34;3.10;99.90
9399;DHT22;4739;49.334;8.792;2023-02-15T05:06:00;3.10;99.90
9399;DHT22;4739;49.334;8.792;2023-02-15T05:08:26;3.00;99.90
9399;DHT22;4739;49.334;8.792;2023-02-15T05:10:52;3.00;99.90
9399;DHT22;4739;49.334;8.792;2023-02-15T05:13:17;3.00;99.90
9399;DHT22;4739;49.334;8.792;2023-02-15T05:15:50;3.00;99.90
9399;DHT22;4739;49.334;8.792;2023-02-15T05:18:17;3.10;99.90
9399;DHT22;4739;49.334;8.792;2023-02-15T05:20:43;3.10;99.90
9399;DHT22;4739;49.334;8.792;2023-02-15T05:23:08;3.10;99.90
9399;DHT22;4739;49.334;8.792;2023-02-15T05:25:34;3.20;99.90
9399;DHT22;4739;49.334;8.792;2023-02-15T05:28:19;3.20;99.90
9399;DHT22;4739;49.334;8.792;2023-02-15T05:31:07;3.20;99.90
9399;DHT22;4739;49.334;8.792;2023-02-15T05:33:31;3.30;99.90
9399;DHT22;4739;49.334;8.792;2023-02-15T05:35:57;3.20;99.90
9399;DHT22;4739;49.334;8.792;2023-02-15T05:38:22;3.20;99.90
9399;DHT22;4739;49.334;8.792;2023-02-15T05:40:48;3.30;99.90
9399;DHT22;4739;49.334;8.792;2023-02-15T05:43:15;3.30;99.90
9399;DHT22;4739;49.334;8.792;2023-02-15T05:45:47;3.20;99.90
9399;DHT22;4739;49.334;8.792;2023-02-15T05:48:13;3.20;99.90
9399;DHT22;4739;49.334;8.792;2023-02-15T05:50:39;3.30;99.90
9399;DHT22;4739;49.334;8.792;2023-02-15T05:53:04;3.30;99.90
9399;DHT22;4739;49.334;8.792;2023-02-15T05:55:30;3.20;99.90
9399;DHT22;4739;49.334;8.792;2023-02-15T05:57:55;3.20;99.90
9399;DHT22;4739;49.334;8.792;2023-02-15T06:00:21;3.10;99.90
9399;DHT22;4739;49.334;8.792;2023-02-15T06:02:47;3.10;99.90
9399;DHT22;4739;49.334;8.792;2023-02-15T06:05:12;3.10;99.90
9399;DHT22;4739;49.334;8.792;2023-02-15T06:07:38;3.00;99.90
9399;DHT22;4739;49.334;8.792;2023-02-15T06:10:04;3.10;99.90
9399;DHT22;4739;49.334;8.792;2023-02-15T06:12:30;3.10;99.90
9399;DHT22;4739;49.334;8.792;2023-02-15T06:14:55;3.00;99.90
9399;DHT22;4739;49.334;8.792;2023-02-15T06:17:21;3.00;99.90
9399;DHT22;4739;49.334;8.792;2023-02-15T06:19:47;3.10;99.90
9399;DHT22;4739;49.334;8.792;2023-02-15T06:22:12;3.00;99.90
9399;DHT22;4739;49.334;8.792;2023-02-15T06:24:39;2.90;99.90
9399;DHT22;4739;49.334;8.792;2023-02-15T06:27:08;3.00;99.90
9399;DHT22;4739;49.334;8.792;2023-02-15T06:29:33;3.00;99.90
9399;DHT22;4739;49.334;8.792;2023-02-15T06:31:59;3.00;99.90
9399;DHT22;4739;49.334;8.792;2023-02-15T06:34:24;2.90;99.90
9399;DHT22;4739;49.334;8.792;2023-02-15T06:36:50;2.90;99.90
9399;DHT22;4739;49.334;8.792;2023-02-15T06:39:15;2.80;99.90
9399;DHT22;4739;49.334;8.792;2023-02-15T06:41:41;2.70;99.90
9399;DHT22;4739;49.334;8.792;2023-02-15T06:44:07;2.70;99.90
9399;DHT22;4739;49.334;8.792;2023-02-15T06:46:32;2.80;99.90
9399;DHT22;4739;49.334;8.792;2023-02-15T06:48:58;2.90;99.90
9399;DHT22;4739;49.334;8.792;2023-02-15T06:51:24;2.90;99.90
9399;DHT22;4739;49.334;8.792;2023-02-15T06:53:49;2.80;99.90
9399;DHT22;4739;49.334;8.792;2023-02-15T06:56:15;2.80;99.90
9399;DHT22;4739;49.334;8.792;2023-02-15T06:58:41;2.80;99.90
9399;DHT22;4739;49.334;8.792;2023-02-15T07:01:08;2.80;99.90
9399;DHT22;4739;49.334;8.792;2023-02-15T07:03:34;2.70;99.90
9399;DHT22;4739;49.334;8.792;2023-02-15T07:06:02;2.70;99.90
9399;DHT22;4739;49.334;8.792;2023-02-15T07:08:28;2.70;99.90
9399;DHT22;4739;49.334;8.792;2023-02-15T07:10:55;2.80;99.90
9399;DHT22;4739;49.334;8.792;2023-02-15T07:13:41;2.80;99.90
9399;DHT22;4739;49.334;8.792;2023-02-15T07:16:08;2.80;99.90
9399;DHT22;4739;49.334;8.792;2023-02-15T07:18:35;2.80;99.90
9399;DHT22;4739;49.334;8.792;2023-02-15T07:21:01;2.80;99.90
9399;DHT22;4739;49.334;8.792;2023-02-15T07:23:26;2.90;99.90
9399;DHT22;4739;49.334;8.792;2023-02-15T07:25:59;2.70;99.90
9399;DHT22;4739;49.334;8.792;2023-02-15T07:28:25;2.70;99.90
9399;DHT22;4739;49.334;8.792;2023-02-15T07:30:50;2.70;99.90
9399;DHT22;4739;49.334;8.792;2023-02-15T07:33:16;2.70;99.90
9399;DHT22;4739;49.334;8.792;2023-02-15T07:35:49;2.70;99.90
9399;DHT22;4739;49.334;8.792;2023-02-15T07:38:15;2.60;99.90
9399;DHT22;4739;49.334;8.792;2023-02-15T07:40:40;2.70;99.90
9399;DHT22;4739;49.334;8.792;2023-02-15T07:43:06;2.70;99.90
9399;DHT22;4739;49.334;8.792;2023-02-15T07:45:31;2.60;99.90
9399;DHT22;4739;49.334;8.792;2023-02-15T07:47:57;2.50;99.90
9399;DHT22;4739;49.334;8.792;2023-02-15T07:50:23;2.60;99.90
9399;DHT22;4739;49.334;8.792;2023-02-15T07:52:48;2.60;99.90
9399;DHT22;4739;49.334;8.792;2023-02-15T07:55:14;2.50;99.90
9399;DHT22;4739;49.334;8.792;2023-02-15T07:57:44;2.50;99.90
9399;DHT22;4739;49.334;8.792;2023-02-15T08:00:11;2.50;99.90
9399;DHT22;4739;49.334;8.792;2023-02-15T08:02:37;2.30;99.90
9399;DHT22;4739;49.334;8.792;2023-02-15T08:05:03;2.40;99.90
9399;DHT22;4739;49.334;8.792;2023-02-15T08:07:29;2.40;99.90
9399;DHT22;4739;49.334;8.792;2023-02-15T08:09:54;2.30;99.90
9399;DHT22;4739;49.334;8.792;2023-02-15T08:12:20;2.30;99.90
9399;DHT22;4739;49.334;8.792;2023-02-15T08:14:45;2.20;99.90
9399;DHT22;4739;49.334;8.792;2023-02-15T08:17:11;2.20;99.90
9399;DHT22;4739;49.334;8.792;2023-02-15T08:19:37;2.30;99.90
9399;DHT22;4739;49.334;8.792;2023-02-15T08:22:05;2.30;99.90
9399;DHT22;4739;49.334;8.792;2023-02-15T08:24:36;2.30;99.90
9399;DHT22;4739;49.334;8.792;2023-02-15T08:27:03;2.40;99.90
9399;DHT22;4739;49.334;8.792;2023-02-15T08:29:30;2.30;99.90
9399;DHT22;4739;49.334;8.792;2023-02-15T08:31:59;2.40;99.90
9399;DHT22;4739;49.334;8.792;2023-02-15T08:34:28;2.40;99.90
9399;DHT22;4739;49.334;8.792;2023-02-15T08:36:54;2.40;99.90
9399;DHT22;4739;49.334;8.792;2023-02-15T08:39:20;2.40;99.90
9399;DHT22;4739;49.334;8.792;2023-02-15T08:41:47;2.50;99.90
9399;DHT22;4739;49.334;8.792;2023-02-15T08:44:15;2.60;99.90
9399;DHT22;4739;49.334;8.792;2023-02-15T08:46:43;2.50;99.90
9399;DHT22;4739;49.334;8.792;2023-02-15T08:49:12;2.60;99.90
9399;DHT22;4739;49.334;8.792;2023-02-15T08:51:39;2.50;99.90
9399;DHT22;4739;49.334;8.792;2023-02-15T08:56:46;2.50;99.90
9399;DHT22;4739;49.334;8.792;2023-02-15T08:59:15;2.40;99.90
9399;DHT22;4739;49.334;8.792;2023-02-15T09:01:41;2.50;99.90
9399;DHT22;4739;49.334;8.792;2023-02-15T09:04:07;2.70;99.90
9399;DHT22;4739;49.334;8.792;2023-02-15T09:06:39;2.80;99.90
9399;DHT22;4739;49.334;8.792;2023-02-15T09:09:06;2.90;99.90
9399;DHT22;4739;49.334;8.792;2023-02-15T09:11:38;3.10;99.90
9399;DHT22;4739;49.334;8.792;2023-02-15T09:14:06;2.80;99.90
9399;DHT22;4739;49.334;8.792;2023-02-15T09:16:34;2.80;99.90
9399;DHT22;4739;49.334;8.792;2023-02-15T09:19:00;2.80;99.90
9399;DHT22;4739;49.334;8.792;2023-02-15T09:21:33;2.90;99.90
9399;DHT22;4739;49.334;8.792;2023-02-15T09:24:01;3.10;99.90
9399;DHT22;4739;49.334;8.792;2023-02-15T09:26:29;2.90;99.90
9399;DHT22;4739;49.334;8.792;2023-02-15T09:28:58;2.80;99.90
9399;DHT22;4739;49.334;8.792;2023-02-15T09:31:26;2.70;99.90
9399;DHT22;4739;49.334;8.792;2023-02-15T09:33:53;2.70;99.90
9399;DHT22;4739;49.334;8.792;2023-02-15T09:36:31;2.70;99.90
9399;DHT22;4739;49.334;8.792;2023-02-15T09:47:48;2.80;99.90
9399;DHT22;4739;49.334;8.792;2023-02-15T09:58:52;2.70;99.90
9399;DHT22;4739;49.334;8.792;2023-02-15T10:06:48;2.80;99.90
9399;DHT22;4739;49.334;8.792;2023-02-15T10:14:57;2.80;99.90
9399;DHT22;4739;49.334;8.792;2023-02-15T10:18:09;2.80;99.90
9399;DHT22;4739;49.334;8.792;2023-02-15T10:21:00;2.80;99.90
9399;DHT22;4739;49.334;8.792;2023-02-15T10:26:18;2.90;99.90
9399;DHT22;4739;49.334;8.792;2023-02-15T10:28:51;2.90;99.90
9399;DHT22;4739;49.334;8.792;2023-02-15T10:34:21;3.00;99.90
9399;DHT22;4739;49.334;8.792;2023-02-15T10:42:19;3.30;99.90
9399;DHT22;4739;49.334;8.792;2023-02-15T10:44:58;3.20;99.90
9399;DHT22;4739;49.334;8.792;2023-02-15T10:58:26;3.60;99.90
9399;DHT22;4739;49.334;8.792;2023-02-15T11:01:15;3.50;99.90
9399;DHT22;4739;49.334;8.792;2023-02-15T11:06:21;3.60;99.90
9399;DHT22;4739;49.334;8.792;2023-02-15T11:08:53;3.70;99.90
9399;DHT22;4739;49.334;8.792;2023-02-15T11:11:48;3.90;99.90
9399;DHT22;4739;49.334;8.792;2023-02-15T11:14:20;3.90;99.90
9399;DHT22;4739;49.334;8.792;2023-02-15T11:16:51;4.00;99.90
9399;DHT22;4739;49.334;8.792;2023-02-15T11:19:33;3.90;99.90
9399;DHT22;4739;49.334;8.792;2023-02-15T11:22:05;4.10;99.90
9399;DHT22;4739;49.334;8.792;2023-02-15T11:24:35;4.10;99.90
9399;DHT22;4739;49.334;8.792;2023-02-15T11:27:15;4.10;99.90
9399;DHT22;4739;49.334;8.792;2023-02-15T11:29:58;3.80;99.90
9399;DHT22;4739;49.334;8.792;2023-02-15T11:32:35;3.60;99.90
9399;DHT22;4739;49.334;8.792;2023-02-15T11:40:29;3.80;99.90
9399;DHT22;4739;49.334;8.792;2023-02-15T11:42:58;4.00;99.90
9399;DHT22;4739;49.334;8.792;2023-02-15T11:45:34;4.20;99.90
9399;DHT22;4739;49.334;8.792;2023-02-15T11:48:00;4.40;99.90
9399;DHT22;4739;49.334;8.792;2023-02-15T11:50:32;4.30;99.90
9399;DHT22;4739;49.334;8.792;2023-02-15T11:53:04;4.20;99.90
9399;DHT22;4739;49.334;8.792;2023-02-15T11:55:31;4.10;99.90
9399;DHT22;4739;49.334;8.792;2023-02-15T12:03:46;4.40;99.90
9399;DHT22;4739;49.334;8.792;2023-02-15T12:06:34;4.50;99.90
9399;DHT22;4739;49.334;8.792;2023-02-15T12:09:12;4.70;99.90
9399;DHT22;4739;49.334;8.792;2023-02-15T12:11:41;4.80;99.90
9399;DHT22;4739;49.334;8.792;2023-02-15T12:14:10;4.40;99.90
9399;DHT22;4739;49.334;8.792;2023-02-15T12:19:21;4.70;99.90
9399;DHT22;4739;49.334;8.792;2023-02-15T12:21:51;4.90;99.90
9399;DHT22;4739;49.334;8.792;2023-02-15T12:26:44;5.30;99.90
9399;DHT22;4739;49.334;8.792;2023-02-15T12:29:17;5.70;99.90
9399;DHT22;4739;49.334;8.792;2023-02-15T12:36:54;6.00;99.90
9399;DHT22;4739;49.334;8.792;2023-02-15T12:39:25;6.40;99.90
9399;DHT22;4739;49.334;8.792;2023-02-15T12:44:25;6.50;99.90
9399;DHT22;4739;49.334;8.792;2023-02-15T12:49:24;6.00;99.90
9399;DHT22;4739;49.334;8.792;2023-02-15T12:51:56;6.10;99.90
9399;DHT22;4739;49.334;8.792;2023-02-15T12:54:29;5.90;99.90
9399;DHT22;4739;49.334;8.792;2023-02-15T12:56:56;5.70;99.90
9399;DHT22;4739;49.334;8.792;2023-02-15T12:59:23;5.50;99.90
9399;DHT22;4739;49.334;8.792;2023-02-15T13:01:49;5.50;99.90
9399;DHT22;4739;49.334;8.792;2023-02-15T13:04:23;5.60;99.90
9399;DHT22;4739;49.334;8.792;2023-02-15T13:06:52;5.80;99.90
9399;DHT22;4739;49.334;8.792;2023-02-15T13:09:38;5.70;99.90
9399;DHT22;4739;49.334;8.792;2023-02-15T13:12:18;5.50;99.90
9399;DHT22;4739;49.334;8.792;2023-02-15T13:14:45;5.60;99.90
9399;DHT22;4739;49.334;8.792;2023-02-15T13:17:13;5.70;99.90
9399;DHT22;4739;49.334;8.792;2023-02-15T13:19:44;6.00;99.90
9399;DHT22;4739;49.334;8.792;2023-02-15T13:22:17;6.20;99.90
9399;DHT22;4739;49.334;8.792;2023-02-15T13:24:53;6.40;99.90
9399;DHT22;4739;49.334;8.792;2023-02-15T13:27:23;6.60;99.90
9399;DHT22;4739;49.334;8.792;2023-02-15T13:29:52;6.80;99.90
9399;DHT22;4739;49.334;8.792;2023-02-15T13:32:25;6.90;99.90
9399;DHT22;4739;49.334;8.792;2023-02-15T13:34:56;7.00;99.90
9399;DHT22;4739;49.334;8.792;2023-02-15T13:40:18;7.00;99.90
9399;DHT22;4739;49.334;8.792;2023-02-15T13:43:00;7.00;99.90
9399;DHT22;4739;49.334;8.792;2023-02-15T13:51:41;6.90;99.90
9399;DHT22;4739;49.334;8.792;2023-02-15T13:56:49;7.00;99.90
9399;DHT22;4739;49.334;8.792;2023-02-15T14:04:34;6.80;99.90
9399;DHT22;4739;49.334;8.792;2023-02-15T14:12:38;6.70;99.90
9399;DHT22;4739;49.334;8.792;2023-02-15T14:15:27;6.50;99.90
9399;DHT22;4739;49.334;8.792;2023-02-15T14:18:25;6.50;99.90
9399;DHT22;4739;49.334;8.792;2023-02-15T14:21:14;6.50;99.90
9399;DHT22;4739;49.334;8.792;2023-02-15T14:31:35;6.70;99.90
9399;DHT22;4739;49.334;8.792;2023-02-15T14:34:02;6.50;99.90
9399;DHT22;4739;49.334;8.792;2023-02-15T14:36:30;6.50;99.90
9399;DHT22;4739;49.334;8.792;2023-02-15T14:38:59;6.60;99.90
9399;DHT22;4739;49.334;8.792;2023-02-15T14:41:45;6.60;99.90
9399;DHT22;4739;49.334;8.792;2023-02-15T14:44:30;6.80;99.90
9399;DHT22;4739;49.334;8.792;2023-02-15T14:47:15;6.70;99.90
9399;DHT22;4739;49.334;8.792;2023-02-15T14:49:44;6.70;99.90
9399;DHT22;4739;49.334;8.792;2023-02-15T14:52:10;6.70;99.90
9399;DHT22;4739;49.334;8.792;2023-02-15T15:04:57;6.80;99.90
9399;DHT22;4739;49.334;8.792;2023-02-15T15:07:36;6.70;99.90
9399;DHT22;4739;49.334;8.792;2023-02-15T15:12:43;6.50;99.90
9399;DHT22;4739;49.334;8.792;2023-02-15T15:15:32;6.40;99.90
9399;DHT22;4739;49.334;8.792;2023-02-15T15:20:43;6.30;99.90
9399;DHT22;4739;49.334;8.792;2023-02-15T15:30:56;6.30;99.90
9399;DHT22;4739;49.334;8.792;2023-02-15T15:33:42;6.10;99.90
9399;DHT22;4739;49.334;8.792;2023-02-15T15:42:01;5.80;99.90
9399;DHT22;4739;49.334;8.792;2023-02-15T15:50:15;5.40;99.90
9399;DHT22;4739;49.334;8.792;2023-02-15T15:52:56;5.40;99.90
9399;DHT22;4739;49.334;8.792;2023-02-15T15:55:26;5.30;99.90
9399;DHT22;4739;49.334;8.792;2023-02-15T15:58:14;5.40;99.90
9399;DHT22;4739;49.334;8.792;2023-02-15T16:00:47;5.30;99.90
9399;DHT22;4739;49.334;8.792;2023-02-15T16:03:23;5.20;99.90
9399;DHT22;4739;49.334;8.792;2023-02-15T16:05:49;5.10;99.90
9399;DHT22;4739;49.334;8.792;2023-02-15T16:08:30;5.00;99.90
9399;DHT22;4739;49.334;8.792;2023-02-15T16:10:56;4.90;99.90
9399;DHT22;4739;49.334;8.792;2023-02-15T16:13:23;4.80;99.90
9399;DHT22;4739;49.334;8.792;2023-02-15T16:15:55;4.80;99.90
9399;DHT22;4739;49.334;8.792;2023-02-15T16:18:26;4.60;99.90
9399;DHT22;4739;49.334;8.792;2023-02-15T16:20:58;4.60;99.90
9399;DHT22;4739;49.334;8.792;2023-02-15T16:28:50;4.40;99.90
9399;DHT22;4739;49.334;8.792;2023-02-15T16:31:18;4.30;99.90
9399;DHT22;4739;49.334;8.792;2023-02-15T16:33:44;4.20;99.90
9399;DHT22;4739;49.334;8.792;2023-02-15T16:36:28;4.10;99.90
9399;DHT22;4739;49.334;8.792;2023-02-15T16:41:28;3.80;99.90
9399;DHT22;4739;49.334;8.792;2023-02-15T16:43:57;3.70;99.90
9399;DHT22;4739;49.334;8.792;2023-02-15T16:46:27;3.70;99.90
9399;DHT22;4739;49.334;8.792;2023-02-15T16:48:57;3.60;99.90
9399;DHT22;4739;49.334;8.792;2023-02-15T16:51:27;3.50;99.90
9399;DHT22;4739;49.334;8.792;2023-02-15T16:53:54;3.40;99.90
9399;DHT22;4739;49.334;8.792;2023-02-15T16:56:29;3.30;99.90
9399;DHT22;4739;49.334;8.792;2023-02-15T16:58:58;3.30;99.90
9399;DHT22;4739;49.334;8.792;2023-02-15T17:01:27;3.20;99.90
9399;DHT22;4739;49.334;8.792;2023-02-15T17:07:05;3.00;99.90
9399;DHT22;4739;49.334;8.792;2023-02-15T17:09:32;2.90;99.90
9399;DHT22;4739;49.334;8.792;2023-02-15T17:11:57;3.00;99.90
9399;DHT22;4739;49.334;8.792;2023-02-15T17:14:31;3.00;99.90
9399;DHT22;4739;49.334;8.792;2023-02-15T17:17:05;2.90;99.90
9399;DHT22;4739;49.334;8.792;2023-02-15T17:19:40;2.80;99.90
9399;DHT22;4739;49.334;8.792;2023-02-15T17:22:25;2.80;99.90
9399;DHT22;4739;49.334;8.792;2023-02-15T17:25:01;2.70;99.90
9399;DHT22;4739;49.334;8.792;2023-02-15T17:27:30;2.50;99.90
9399;DHT22;4739;49.334;8.792;2023-02-15T17:30:00;2.40;99.90
9399;DHT22;4739;49.334;8.792;2023-02-15T17:32:30;2.40;99.90
9399;DHT22;4739;49.334;8.792;2023-02-15T17:37:32;2.30;99.90
9399;DHT22;4739;49.334;8.792;2023-02-15T17:42:44;2.10;99.90
9399;DHT22;4739;49.334;8.792;2023-02-15T17:45:09;2.10;99.90
9399;DHT22;4739;49.334;8.792;2023-02-15T17:47:35;2.10;99.90
9399;DHT22;4739;49.334;8.792;2023-02-15T17:50:03;2.00;99.90
9399;DHT22;4739;49.334;8.792;2023-02-15T17:52:30;2.00;99.90
9399;DHT22;4739;49.334;8.792;2023-02-15T17:54:56;1.90;99.90
9399;DHT22;4739;49.334;8.792;2023-02-15T17:57:40;1.90;99.90
9399;DHT22;4739;49.334;8.792;2023-02-15T18:00:07;1.90;99.90
9399;DHT22;4739;49.334;8.792;2023-02-15T18:02:51;1.80;99.90
9399;DHT22;4739;49.334;8.792;2023-02-15T18:05:36;1.80;99.90
9399;DHT22;4739;49.334;8.792;2023-02-15T18:08:26;1.80;99.90
9399;DHT22;4739;49.334;8.792;2023-02-15T18:11:11;1.70;99.90
9399;DHT22;4739;49.334;8.792;2023-02-15T18:13:55;1.70;99.90
9399;DHT22;4739;49.334;8.792;2023-02-15T18:16:27;1.60;99.90
9399;DHT22;4739;49.334;8.792;2023-02-15T18:18:54;1.60;99.90
9399;DHT22;4739;49.334;8.792;2023-02-15T18:21:20;1.60;99.90
9399;DHT22;4739;49.334;8.792;2023-02-15T18:23:45;1.60;99.90
9399;DHT22;4739;49.334;8.792;2023-02-15T18:26:18;1.70;99.90
9399;DHT22;4739;49.334;8.792;2023-02-15T18:28:43;1.60;99.90
9399;DHT22;4739;49.334;8.792;2023-02-15T18:31:11;1.50;99.90
9399;DHT22;4739;49.334;8.792;2023-02-15T18:33:48;1.50;99.90
9399;DHT22;4739;49.334;8.792;2023-02-15T18:36:27;1.50;99.90
9399;DHT22;4739;49.334;8.792;2023-02-15T18:38:56;1.40;99.90
9399;DHT22;4739;49.334;8.792;2023-02-15T18:41:22;1.30;99.90
9399;DHT22;4739;49.334;8.792;2023-02-15T18:43:49;1.30;99.90
9399;DHT22;4739;49.334;8.792;2023-02-15T18:46:15;1.30;99.90
9399;DHT22;4739;49.334;8.792;2023-02-15T18:48:41;1.30;99.90
9399;DHT22;4739;49.334;8.792;2023-02-15T18:51:16;1.30;99.90
9399;DHT22;4739;49.334;8.792;2023-02-15T18:53:42;1.20;99.90
9399;DHT22;4739;49.334;8.792;2023-02-15T18:56:14;1.20;99.90
9399;DHT22;4739;49.334;8.792;2023-02-15T18:58:41;1.20;99.90
9399;DHT22;4739;49.334;8.792;2023-02-15T19:01:12;1.10;99.90
9399;DHT22;4739;49.334;8.792;2023-02-15T19:03:47;1.10;99.90
9399;DHT22;4739;49.334;8.792;2023-02-15T19:06:22;1.10;99.90
9399;DHT22;4739;49.334;8.792;2023-02-15T19:08:50;1.00;99.90
9399;DHT22;4739;49.334;8.792;2023-02-15T19:11:18;1.00;99.90
9399;DHT22;4739;49.334;8.792;2023-02-15T19:13:45;1.00;99.90
9399;DHT22;4739;49.334;8.792;2023-02-15T19:16:34;1.00;99.90
9399;DHT22;4739;49.334;8.792;2023-02-15T19:19:00;0.90;99.90
9399;DHT22;4739;49.334;8.792;2023-02-15T19:21:30;0.90;99.90
9399;DHT22;4739;49.334;8.792;2023-02-15T19:23:59;0.90;99.90
9399;DHT22;4739;49.334;8.792;2023-02-15T19:26:26;0.90;99.90
9399;DHT22;4739;49.334;8.792;2023-02-15T19:28:59;0.80;99.90
9399;DHT22;4739;49.334;8.792;2023-02-15T19:31:26;0.80;99.90
9399;DHT22;4739;49.334;8.792;2023-02-15T19:33:51;0.80;99.90
9399;DHT22;4739;49.334;8.792;2023-02-15T19:36:17;0.80;99.90
9399;DHT22;4739;49.334;8.792;2023-02-15T19:38:47;0.80;99.90
9399;DHT22;4739;49.334;8.792;2023-02-15T19:41:22;0.80;99.90
9399;DHT22;4739;49.334;8.792;2023-02-15T19:43:53;0.70;99.90